Etusivu
METAR-TAF:

METAR-TAF

Lentoasemat :

Copper Harbor, Michigan, Yhdysvallat

Leveyspiiri: 47-28-01N, Pituuspiiri: 087-52-30W, korkeus merenpinnasta: 190 m

Tämänhetkinen sää

Tämä raportti tehtiin 41 minuuttia sitten, kello 10.51 UTC
Tuuli 28 kn pohjoisen/luoteesta puuskistuen 41 kn:hen
Lämpötila 2°C
Kosteus 64%
Ilmanpaine 991 hPa

METAR: KP59 211051Z AUTO 34028G41KT 02/M04 A2927 RMK AO1 PK WND 34051/0953 SLP921 T00221039

Aika: 06:32 (11:32 UTC)


TAF: puuttuu

Säähavainnot ja -ennusteet yli 4000 lentoasemalta (METAR- ja TAF-raportit).

Käytössä olevat sääasemat on merkitty karttaan keltaisilla ja punaisilla pisteillä.

Aseta hiiri pisteen päälle nähdäksesi sääaseman nimen.

Klikkaa sitten nähdäksesi säähavainnot ja -ennusteet.

Kartan vaihtaminen: klikkaa mustalla rastilla varustettuja vihreitä pisteitä, niin voit zoomata sisään; viivalla varustettua vihreää pistettä, niin voit zoomata ulos tai vihreitä nuolia, niin pääset viereisille kartoille.


METAR-TAF: